Time;durP1;ratioP1;P1;durP2;ratioP2;P2;SDS_P1;SDS_P2;PMS_P1;PMS_P2;Temp;Humidity;BMP_temperature;BMP_pressure;BME280_temperature;BME280_humidity;BME280_pressure;Samples;Min_cycle;Max_cycle;Signal;HPM_P1;HPM_P2
2023/03/16 00:02:26;;;;;;;10.07;3.30;;;1.30;98.00;;;0.45;73.56;101465.00;5055124;28;20194;-73
2023/03/16 00:04:58;;;;;;;7.73;3.57;;;1.40;98.10;;;0.49;73.42;101463.91;5055631;28;20256;-73
2023/03/16 00:07:31;;;;;;;7.30;2.90;;;1.50;98.00;;;0.52;72.89;101469.03;5055023;28;20206;-73
2023/03/16 00:10:03;;;;;;;7.37;3.00;;;1.50;97.70;;;0.52;72.94;101466.38;5054621;28;20665;-73
2023/03/16 00:12:36;;;;;;;9.83;2.83;;;1.50;97.70;;;0.51;72.96;101464.69;5054959;28;20191;-73
2023/03/16 00:15:10;;;;;;;7.30;3.10;;;1.50;97.60;;;0.48;72.76;101467.47;5054623;28;20234;-73
2023/03/16 00:17:47;;;;;;;7.23;3.17;;;1.50;97.60;;;0.47;72.27;101467.56;5054809;28;20560;-73
2023/03/16 00:20:19;;;;;;;7.10;2.80;;;1.40;97.60;;;0.42;73.01;101461.66;5054694;28;20233;-73
2023/03/16 00:22:51;;;;;;;7.70;3.53;;;1.40;97.60;;;0.33;72.84;101455.09;5054442;28;20660;-73
2023/03/16 00:25:23;;;;;;;9.83;3.30;;;1.30;97.80;;;0.26;73.57;101464.25;5054280;28;20241;-73
2023/03/16 00:27:56;;;;;;;7.87;3.40;;;1.20;98.00;;;0.24;73.71;101465.25;5054597;28;20198;-73
2023/03/16 00:30:27;;;;;;;9.73;4.27;;;1.20;98.60;;;0.20;73.74;101464.56;5055150;28;20186;-73
2023/03/16 00:33:00;;;;;;;10.00;4.07;;;1.20;98.30;;;0.10;73.61;101468.56;5054515;28;20225;-73
2023/03/16 00:35:33;;;;;;;7.10;3.83;;;1.10;98.40;;;0.08;74.07;101457.25;5054058;28;20317;-73
2023/03/16 00:38:05;;;;;;;9.13;4.10;;;1.00;98.50;;;0.06;74.85;101458.25;5054117;28;20604;-73
2023/03/16 00:40:37;;;;;;;8.23;3.77;;;1.00;98.60;;;-0.01;74.72;101470.88;5054008;28;20240;-73
2023/03/16 00:43:10;;;;;;;7.33;3.20;;;1.00;98.60;;;-0.05;74.11;101461.41;5054297;28;20187;-73
2023/03/16 00:45:43;;;;;;;5.20;3.27;;;1.00;98.70;;;0.00;74.00;101467.31;5054177;28;20249;-73
2023/03/16 00:48:15;;;;;;;5.17;3.73;;;0.90;98.80;;;-0.10;74.51;101455.50;5053941;28;20190;-74
2023/03/16 00:50:46;;;;;;;8.50;3.70;;;0.90;98.70;;;-0.08;74.17;101458.94;5054132;28;20191;-73
2023/03/16 00:53:18;;;;;;;6.40;3.40;;;0.90;98.90;;;-0.11;74.66;101459.09;5053965;28;20194;-73
2023/03/16 00:55:52;;;;;;;7.30;3.87;;;0.80;98.80;;;-0.05;73.79;101459.66;5053447;28;20714;-74
2023/03/16 00:58:25;;;;;;;6.50;3.77;;;0.90;98.70;;;-0.12;74.41;101457.38;5054053;28;20196;-74
2023/03/16 01:00:58;;;;;;;9.03;3.90;;;0.80;98.70;;;-0.13;74.98;101450.41;5054095;28;20222;-73
2023/03/16 01:03:30;;;;;;;9.23;4.40;;;0.80;98.60;;;-0.20;74.65;101449.00;5053969;28;20357;-73
2023/03/16 01:06:05;;;;;;;8.40;4.10;;;0.70;98.70;;;-0.19;74.31;101450.72;5053916;28;20195;-73
2023/03/16 01:08:38;;;;;;;9.07;4.47;;;0.70;99.20;;;-0.16;75.28;101459.31;5053583;28;20537;-73
2023/03/16 01:11:15;;;;;;;7.73;4.60;;;0.70;98.90;;;-0.11;74.59;101459.09;5053871;28;20194;-73
2023/03/16 01:13:53;;;;;;;6.23;3.90;;;0.90;98.60;;;-0.16;74.83;101453.19;5053405;28;20200;-73
2023/03/16 01:16:24;;;;;;;9.50;3.90;;;0.80;98.40;;;-0.22;74.71;101450.88;5053599;28;20225;-73
2023/03/16 01:18:56;;;;;;;6.73;3.30;;;0.70;98.70;;;-0.22;74.57;101461.41;5053431;28;20725;-73
2023/03/16 01:21:31;;;;;;;5.97;3.57;;;0.70;98.70;;;-0.30;74.94;101456.50;5053390;28;20560;-73
2023/03/16 01:24:03;;;;;;;8.40;3.40;;;0.90;98.80;;;-0.34;75.43;101462.00;5053591;28;20364;-73
2023/03/16 01:26:36;;;;;;;9.77;3.33;;;0.60;99.20;;;-0.33;75.74;101455.78;5053595;28;20194;-73
2023/03/16 01:29:09;;;;;;;7.20;3.63;;;0.60;99.30;;;-0.32;75.37;101452.25;5053582;28;20213;-73
2023/03/16 01:31:42;;;;;;;8.17;3.30;;;0.60;99.10;;;-0.33;75.70;101446.13;5053566;28;20190;-73
2023/03/16 01:34:17;;;;;;;9.10;3.47;;;0.60;99.00;;;-0.32;75.08;101449.59;5053411;28;20225;-73
2023/03/16 01:36:52;;;;;;;7.17;3.10;;;0.60;99.10;;;-0.37;75.53;101438.44;5053504;28;20194;-73
2023/03/16 01:39:24;;;;;;;9.57;3.57;;;0.60;98.90;;;-0.37;76.01;101446.34;5053402;28;20193;-73
2023/03/16 01:41:56;;;;;;;6.77;3.43;;;0.60;99.20;;;-0.40;75.23;101435.97;5053199;28;20189;-73
2023/03/16 01:44:49;;;;;;;6.67;3.20;;;0.60;99.20;;;-0.40;75.09;101441.22;5053330;28;20291;-73
2023/03/16 01:47:22;;;;;;;6.63;3.27;;;0.50;99.10;;;-0.41;74.90;101442.16;5053395;28;20190;-73
2023/03/16 01:49:57;;;;;;;6.57;3.27;;;0.60;99.20;;;-0.40;75.95;101436.81;5053787;28;20623;-73
2023/03/16 01:52:35;;;;;;;6.57;3.20;;;0.60;99.30;;;-0.38;75.80;101442.88;5053388;28;20193;-73
2023/03/16 01:55:12;;;;;;;6.53;3.37;;;0.60;99.10;;;-0.39;75.83;101437.66;5053236;28;20232;-73
2023/03/16 01:57:49;;;;;;;7.53;3.60;;;0.60;99.10;;;-0.38;76.11;101432.34;5053310;28;20198;-73
2023/03/16 02:00:30;;;;;;;6.87;3.27;;;0.60;99.30;;;-0.43;74.94;101428.22;5053241;28;20210;-73
2023/03/16 02:03:08;;;;;;;10.10;3.73;;;0.50;99.10;;;-0.48;75.85;101433.72;5053272;28;20269;-73
2023/03/16 02:05:48;;;;;;;6.77;3.43;;;0.50;99.20;;;-0.46;75.93;101428.38;5052869;28;20709;-73
2023/03/16 02:08:21;;;;;;;6.30;3.40;;;1.50;99.50;;;-0.50;76.11;101425.03;5056919;28;20194;-73
2023/03/16 02:10:55;;;;;;;9.70;3.40;;;0.50;99.20;;;-0.44;75.71;101431.75;5057146;28;20197;-73
2023/03/16 02:13:28;;;;;;;6.20;3.00;;;0.50;99.30;;;-0.44;75.80;101434.41;5057963;28;20580;-73
2023/03/16 02:16:02;;;;;;;6.40;3.17;;;0.60;99.40;;;-0.41;76.43;101434.28;5056995;28;20292;-73
2023/03/16 02:18:35;;;;;;;7.80;3.50;;;0.60;99.40;;;-0.43;75.58;101441.38;5057030;28;20193;-73
2023/03/16 02:21:18;;;;;;;5.63;2.90;;;0.60;99.10;;;-0.45;75.42;101437.97;5056849;28;20221;-73
2023/03/16 02:23:50;;;;;;;8.07;3.83;;;0.50;99.20;;;-0.51;75.41;101431.22;5056870;28;20272;-73
2023/03/16 02:26:33;;;;;;;10.90;3.20;;;0.50;99.30;;;-0.52;75.95;101440.91;5056967;28;20320;-73
2023/03/16 02:29:17;;;;;;;7.07;2.77;;;0.50;99.40;;;-0.56;75.88;101426.19;5056843;28;20205;-73
2023/03/16 02:31:50;;;;;;;6.40;3.10;;;0.40;99.40;;;-0.59;76.94;101431.59;5056763;28;20193;-73
2023/03/16 02:34:23;;;;;;;7.67;3.73;;;0.40;99.50;;;-0.67;75.62;101428.47;5056657;28;20230;-73
2023/03/16 02:36:59;;;;;;;5.70;3.03;;;0.30;99.50;;;-0.71;76.15;101432.16;5056728;28;20201;-73
2023/03/16 02:39:33;;;;;;;9.67;3.47;;;0.30;99.60;;;-0.75;76.69;101427.97;5056625;28;20201;-73
2023/03/16 02:42:12;;;;;;;5.70;3.47;;;0.30;99.80;;;-0.76;76.49;101421.03;5056572;28;20201;-73
2023/03/16 02:44:47;;;;;;;8.77;3.20;;;0.30;99.90;;;-0.79;77.17;101423.81;5056494;28;20236;-73
2023/03/16 02:47:33;;;;;;;5.63;3.10;;;0.20;99.90;;;-0.77;76.73;101421.09;5056218;28;20201;-73
2023/03/16 02:50:07;;;;;;;7.23;3.10;;;0.20;99.90;;;-0.81;77.51;101419.50;5056465;28;20190;-73
2023/03/16 02:52:40;;;;;;;8.30;3.03;;;0.20;99.80;;;-0.77;75.43;101415.81;5056124;28;20643;-73
2023/03/16 02:55:12;;;;;;;5.83;2.73;;;0.30;99.70;;;-0.77;76.33;101403.53;5056039;28;20732;-73
2023/03/16 02:57:44;;;;;;;6.13;2.90;;;0.30;99.60;;;-0.74;75.82;101402.53;5056328;28;20244;-73
2023/03/16 03:00:17;;;;;;;10.93;3.27;;;0.30;99.40;;;-0.73;76.32;101398.97;5056214;28;20213;-73
2023/03/16 03:02:51;;;;;;;7.07;3.10;;;0.30;99.40;;;-0.78;75.22;101399.19;5056241;28;20309;-73
2023/03/16 03:05:23;;;;;;;8.00;2.83;;;0.30;99.40;;;-0.82;74.99;101397.63;5055801;28;20721;-73
2023/03/16 03:07:54;;;;;;;6.40;3.10;;;0.20;99.40;;;-0.84;76.16;101403.88;5056129;28;20202;-73
2023/03/16 03:10:27;;;;;;;5.37;2.73;;;0.20;99.40;;;-0.82;76.09;101400.25;5055810;28;20643;-73
2023/03/16 03:12:59;;;;;;;8.30;3.10;;;0.20;99.70;;;-0.81;75.61;101399.34;5055996;28;20608;-73
2023/03/16 03:15:32;;;;;;;6.57;2.67;;;0.50;99.50;;;-0.82;76.00;101400.25;5055528;28;20727;-73
2023/03/16 03:18:06;;;;;;;6.13;2.73;;;0.20;99.30;;;-0.85;75.63;101402.19;5055121;28;20642;-73
2023/03/16 03:20:38;;;;;;;6.20;3.23;;;0.40;99.40;;;-0.92;76.21;101390.25;5055853;28;20211;-73
2023/03/16 03:23:09;;;;;;;4.00;2.80;;;0.10;99.40;;;-0.93;75.80;101394.66;5055529;28;20635;-73
2023/03/16 03:25:41;;;;;;;6.80;2.83;;;0.10;99.60;;;-0.93;76.48;101399.06;5055700;28;20226;-73
2023/03/16 03:28:14;;;;;;;4.87;2.70;;;0.10;99.50;;;-0.90;76.35;101393.66;5055783;28;20193;-73
2023/03/16 03:30:45;;;;;;;6.50;2.90;;;0.10;99.50;;;-0.93;75.14;101389.41;5055742;28;20190;-73
2023/03/16 03:33:19;;;;;;;5.47;2.87;;;0.10;99.30;;;-0.92;76.08;101401.59;5055652;28;20194;-73
2023/03/16 03:35:56;;;;;;;7.13;2.70;;;0.20;99.30;;;-0.91;76.03;101398.06;5055529;28;20280;-73
2023/03/16 03:38:28;;;;;;;4.73;2.50;;;0.10;99.20;;;-0.95;75.22;101396.50;5056149;28;20205;-73
2023/03/16 03:41:00;;;;;;;7.90;2.73;;;0.10;99.40;;;-0.96;75.22;101400.06;5055484;28;20210;-73
2023/03/16 03:43:33;;;;;;;7.50;2.83;;;0.10;99.40;;;-0.95;75.41;101396.50;5055181;28;20190;-73
2023/03/16 03:46:05;;;;;;;6.23;2.40;;;0.10;99.40;;;-0.97;75.16;101397.50;5055424;28;20244;-73
2023/03/16 03:48:39;;;;;;;5.57;2.63;;;0.10;99.20;;;-0.98;75.67;101396.66;5055057;28;20639;-73
2023/03/16 03:51:11;;;;;;;6.13;2.50;;;0.10;99.50;;;-1.00;76.44;101395.03;5055027;28;20604;-74
2023/03/16 03:53:43;;;;;;;7.50;3.20;;;0.10;99.50;;;-1.02;77.04;101393.31;5054886;28;20639;-73
2023/03/16 03:56:15;;;;;;;5.27;2.47;;;0.00;99.70;;;-1.01;76.25;101394.16;5055270;28;20194;-73
2023/03/16 03:58:47;;;;;;;4.77;2.30;;;0.10;99.70;;;-1.01;75.40;101399.41;5054853;28;20627;-73
2023/03/16 04:01:18;;;;;;;5.13;2.60;;;0.00;99.40;;;-1.02;76.73;101402.97;5055048;28;20214;-73
2023/03/16 04:03:53;;;;;;;6.80;2.83;;;0.00;99.60;;;-1.06;75.97;101399.63;5054908;28;20214;-73
2023/03/16 04:06:24;;;;;;;6.40;3.13;;;0.00;99.60;;;-1.06;75.85;101399.63;5055056;28;20197;-73
2023/03/16 04:08:56;;;;;;;6.47;3.60;;;0.00;99.70;;;-1.08;76.96;101392.75;5054992;28;20190;-73
2023/03/16 04:11:28;;;;;;;9.60;4.30;;;0.00;99.80;;;-1.07;75.97;101394.47;5054922;28;20197;-73
2023/03/16 04:14:00;;;;;;;13.30;3.90;;;0.00;99.90;;;-1.07;76.40;101395.31;5054846;28;20226;-73
2023/03/16 04:16:32;;;;;;;5.67;2.90;;;0.00;99.90;;;-1.02;76.86;101405.59;5054530;28;20218;-73
2023/03/16 04:19:05;;;;;;;5.47;3.70;;;0.00;99.90;;;-1.03;76.27;101403.91;5054497;28;20193;-73
2023/03/16 04:21:37;;;;;;;7.93;5.13;;;0.10;99.90;;;-1.04;76.44;101404.81;5054667;28;20214;-73
2023/03/16 04:24:13;;;;;;;7.57;4.60;;;0.00;99.90;;;-1.05;76.97;101403.09;5054575;28;20221;-73
2023/03/16 04:26:46;;;;;;;9.33;5.40;;;0.00;99.90;;;-1.08;76.07;101398.84;5054317;28;20669;-73
2023/03/16 04:29:19;;;;;;;6.13;3.07;;;0.00;99.90;;;-1.08;77.54;101400.63;5053395;28;20599;-73
2023/03/16 04:31:52;;;;;;;8.40;3.40;;;0.00;99.90;;;-1.09;76.93;101402.41;5054507;28;20186;-73
2023/03/16 04:34:26;;;;;;;6.73;3.73;;;0.00;99.90;;;-1.13;77.54;101402.63;5054117;28;20764;-73
2023/03/16 04:36:58;;;;;;;9.43;5.70;;;-0.10;99.90;;;-1.13;77.65;101395.56;5054424;28;20190;-73
2023/03/16 04:39:30;;;;;;;12.90;6.40;;;-0.10;99.90;;;-1.15;77.45;101393.94;5054381;28;20186;-73
2023/03/16 04:42:01;;;;;;;11.87;7.20;;;-0.10;99.90;;;-1.15;77.06;101393.94;5053973;28;20211;-73
2023/03/16 04:44:33;;;;;;;36.30;27.47;;;-0.10;99.90;;;-1.14;77.49;101400.91;5054203;28;20222;-73
2023/03/16 04:47:05;;;;;;;18.67;16.27;;;-0.10;99.90;;;-1.16;77.12;101398.34;5054283;28;20201;-73
2023/03/16 04:49:38;;;;;;;11.00;9.90;;;-0.10;99.90;;;-1.17;77.66;101386.16;5054188;28;20296;-73
2023/03/16 04:52:12;;;;;;;8.93;6.63;;;0.00;99.90;;;-1.15;76.87;101393.94;5053809;28;20191;-73
2023/03/16 04:54:44;;;;;;;9.93;5.13;;;-0.10;99.90;;;-1.13;77.46;101405.25;5054033;28;20230;-73
2023/03/16 04:57:18;;;;;;;6.83;4.03;;;0.00;99.90;;;-1.14;77.70;101400.91;5054083;28;20198;-73
2023/03/16 04:59:50;;;;;;;7.33;3.80;;;-0.10;99.90;;;-1.19;77.54;101398.47;5054015;28;20189;-73
2023/03/16 05:02:21;;;;;;;6.23;3.57;;;-0.10;99.90;;;-1.20;77.10;101395.94;5053570;28;20623;-73
2023/03/16 05:04:54;;;;;;;7.13;3.80;;;-0.10;99.90;;;-1.20;77.51;101398.56;5053886;28;20234;-73
2023/03/16 05:07:27;;;;;;;10.30;4.60;;;-0.10;99.90;;;-1.20;77.06;101399.41;5053913;28;20201;-73
2023/03/16 05:09:59;;;;;;;6.47;3.00;;;-0.20;99.90;;;-1.19;77.60;101398.47;5054388;28;20191;-73
2023/03/16 05:12:31;;;;;;;5.40;2.73;;;-0.10;99.90;;;-1.23;77.69;101401.31;5053803;28;20194;-73
2023/03/16 05:15:03;;;;;;;7.93;2.80;;;-0.10;99.90;;;-1.21;77.89;101404.75;5053610;28;20234;-73
2023/03/16 05:17:36;;;;;;;4.83;2.40;;;-0.10;99.90;;;-1.24;78.03;101411.00;5053738;28;20201;-73
2023/03/16 05:20:13;;;;;;;4.90;3.30;;;-0.20;99.90;;;-1.25;77.83;101397.91;5053706;28;20197;-73
2023/03/16 05:22:48;;;;;;;6.33;2.43;;;-0.20;99.90;;;-1.22;77.91;101403.03;5053584;28;20214;-73
2023/03/16 05:25:21;;;;;;;6.83;3.70;;;-0.10;99.90;;;-1.21;77.75;101404.75;5053509;28;20585;-73
2023/03/16 05:27:54;;;;;;;7.13;3.00;;;-0.10;99.90;;;-1.19;77.05;101402.88;5053180;28;20589;-74
2023/03/16 05:30:26;;;;;;;7.07;3.37;;;-0.10;99.90;;;-1.17;77.68;101401.91;5053476;28;20190;-74
2023/03/16 05:32:58;;;;;;;5.77;2.60;;;-0.10;99.90;;;-1.15;77.35;101389.53;5053402;28;20209;-74
2023/03/16 05:35:31;;;;;;;6.57;3.03;;;0.00;99.90;;;-1.09;76.96;101389.25;5053029;28;20312;-74
2023/03/16 05:38:03;;;;;;;7.80;3.40;;;0.00;99.90;;;-1.09;77.09;101391.03;5053047;28;20701;-73
2023/03/16 05:40:36;;;;;;;7.17;3.07;;;0.00;99.90;;;-1.08;77.71;101387.50;5052621;28;20543;-73
2023/03/16 05:43:08;;;;;;;6.77;3.33;;;0.00;99.90;;;-1.07;77.07;101391.81;5053031;28;20257;-73
2023/03/16 05:45:39;;;;;;;5.43;3.00;;;0.10;99.90;;;-1.07;77.14;101387.44;5053297;28;20230;-73
2023/03/16 05:48:11;;;;;;;5.50;2.83;;;0.10;99.90;;;-1.05;77.46;101389.97;5053157;28;20209;-73
2023/03/16 05:50:44;;;;;;;5.83;3.23;;;0.10;99.90;;;-1.03;76.98;101385.50;5053312;28;20193;-73
2023/03/16 05:53:16;;;;;;;6.07;3.67;;;0.10;99.90;;;-1.00;77.54;101388.00;5053340;28;20187;-73
2023/03/16 05:55:53;;;;;;;10.70;6.30;;;0.10;99.90;;;-0.98;76.85;101387.91;5053233;28;20230;-73
2023/03/16 05:58:25;;;;;;;8.50;3.30;;;0.10;99.90;;;-0.98;76.97;101380.03;5053373;28;20601;-73
2023/03/16 06:00:59;;;;;;;4.97;2.30;;;0.20;99.90;;;-0.96;77.44;101368.53;5053242;28;20203;-73
2023/03/16 06:03:31;;;;;;;6.10;2.90;;;0.20;99.90;;;-0.95;77.12;101364.09;5053145;28;20213;-73
2023/03/16 06:06:05;;;;;;;6.73;2.67;;;0.20;99.90;;;-0.92;77.11;101358.69;5053233;28;20197;-73
2023/03/16 06:08:37;;;;;;;7.37;2.40;;;0.20;99.90;;;-0.91;77.50;101363.03;5052843;28;20657;-74
2023/03/16 06:11:08;;;;;;;3.63;2.37;;;0.20;99.90;;;-0.90;78.05;101356.88;5053153;28;20190;-74
2023/03/16 06:13:41;;;;;;;8.20;2.30;;;0.30;99.90;;;-0.87;78.09;101362.84;5053014;28;20190;-73
2023/03/16 06:16:13;;;;;;;4.70;2.13;;;0.30;99.90;;;-0.83;77.13;101359.13;5052792;28;20210;-73
2023/03/16 06:18:45;;;;;;;5.70;2.23;;;0.30;99.90;;;-0.80;77.78;101368.66;5053703;28;20629;-74
2023/03/16 06:21:18;;;;;;;8.37;2.57;;;0.40;99.90;;;-0.78;77.69;101367.66;5053117;28;20198;-74
2023/03/16 06:23:50;;;;;;;8.23;2.57;;;0.40;99.90;;;-0.74;78.35;101358.69;5052892;28;20225;-73
2023/03/16 06:26:22;;;;;;;5.30;2.10;;;0.40;99.90;;;-0.71;78.86;101369.06;5052699;28;20584;-74
2023/03/16 06:28:54;;;;;;;3.50;1.97;;;0.40;99.90;;;-0.67;79.01;101368.00;5052973;28;20201;-74
2023/03/16 06:31:26;;;;;;;3.83;2.00;;;0.50;99.90;;;-0.61;78.99;101374.72;5052869;28;20666;-74
2023/03/16 06:33:58;;;;;;;6.17;2.43;;;0.50;99.90;;;-0.57;78.67;101377.13;5052815;28;20222;-73
2023/03/16 06:36:31;;;;;;;5.57;2.40;;;0.60;99.90;;;-0.54;79.45;101381.38;5052812;28;20561;-74
2023/03/16 06:39:03;;;;;;;4.93;2.00;;;0.60;99.90;;;-0.53;78.91;101383.09;5052643;28;20198;-75
2023/03/16 06:41:35;;;;;;;4.57;2.30;;;0.60;99.90;;;-0.52;79.00;101383.03;5052875;28;20190;-74
2023/03/16 06:44:07;;;;;;;5.57;2.40;;;0.60;99.90;;;-0.48;79.95;101375.00;5052760;28;20234;-74
2023/03/16 06:46:39;;;;;;;7.53;2.63;;;0.70;99.90;;;-0.46;79.33;101378.38;5052505;28;20533;-74
2023/03/16 06:49:10;;;;;;;4.53;2.40;;;0.70;99.90;;;-0.41;79.46;101381.66;5052502;28;20720;-74
2023/03/16 06:51:44;;;;;;;8.10;2.40;;;0.70;99.90;;;-0.38;80.20;101384.16;5052735;28;20613;-73
2023/03/16 06:54:16;;;;;;;5.07;2.37;;;0.80;99.90;;;-0.37;79.45;101393.72;5056337;28;20233;-72
2023/03/16 06:56:48;;;;;;;11.03;4.30;;;0.80;99.90;;;-0.34;79.60;101388.34;5056371;28;20194;-72
2023/03/16 06:59:20;;;;;;;4.07;2.40;;;0.80;99.90;;;-0.33;80.88;101400.53;5056299;28;20191;-72
2023/03/16 07:01:52;;;;;;;10.30;2.43;;;0.80;99.90;;;-0.30;80.02;101400.38;5056194;28;20187;-72
2023/03/16 07:04:24;;;;;;;6.17;2.40;;;0.90;99.90;;;-0.28;79.81;101409.06;5055822;28;20229;-72
2023/03/16 07:06:57;;;;;;;5.83;2.53;;;0.90;99.90;;;-0.25;79.69;101403.66;5056174;28;20214;-74
2023/03/16 07:09:29;;;;;;;5.93;2.53;;;0.90;99.90;;;-0.22;80.58;101417.50;5055777;28;20643;-74
2023/03/16 07:12:01;;;;;;;4.30;2.30;;;0.90;99.90;;;-0.18;80.57;101410.31;5055720;28;20566;-74
2023/03/16 07:14:33;;;;;;;6.43;2.60;;;1.00;99.90;;;-0.15;80.05;101424.19;5055932;28;20229;-75
2023/03/16 07:17:05;;;;;;;6.13;2.13;;;1.00;99.90;;;-0.07;79.51;101415.91;5055528;28;20612;-74
2023/03/16 07:19:40;;;;;;;4.90;2.33;;;1.10;99.90;;;-0.03;80.15;101420.94;5055911;28;20373;-73
2023/03/16 07:22:13;;;;;;;5.57;2.50;;;1.10;99.90;;;0.00;80.68;101425.22;5055783;28;20225;-73
2023/03/16 07:24:45;;;;;;;4.97;2.33;;;1.20;99.90;;;0.02;79.81;101418.06;5055398;28;20234;-73
2023/03/16 07:27:17;;;;;;;7.03;2.57;;;1.20;99.90;;;0.08;80.08;101427.44;5055785;28;20202;-73
2023/03/16 07:29:49;;;;;;;4.03;2.10;;;1.30;99.90;;;0.14;80.38;101422.72;5055709;28;20205;-73
2023/03/16 07:32:21;;;;;;;5.93;2.27;;;1.30;99.90;;;0.16;79.40;101420.88;5055394;28;20195;-74
2023/03/16 07:34:53;;;;;;;5.63;2.57;;;1.30;99.90;;;0.19;80.04;101431.25;5055579;28;20562;-73
2023/03/16 07:37:26;;;;;;;3.17;2.20;;;1.40;99.90;;;0.25;79.89;101433.56;5055438;28;20191;-73
2023/03/16 07:39:58;;;;;;;4.73;2.20;;;1.40;99.90;;;0.31;79.96;101429.78;5056182;28;20201;-73
2023/03/16 07:42:30;;;;;;;7.47;2.50;;;1.50;99.90;;;0.39;80.34;101432.84;5055264;28;20197;-73
2023/03/16 07:45:02;;;;;;;6.17;2.67;;;1.50;99.90;;;0.46;80.23;101435.09;5054896;28;20233;-73
2023/03/16 07:47:34;;;;;;;5.63;2.70;;;1.60;99.90;;;0.51;80.52;101437.50;5055016;28;20662;-73
2023/03/16 07:50:08;;;;;;;5.33;2.80;;;1.70;99.90;;;0.54;80.18;101436.47;5055183;28;20198;-74
2023/03/16 07:52:41;;;;;;;6.90;2.40;;;1.70;99.90;;;0.58;79.46;101430.13;5054844;28;20650;-74
2023/03/16 07:55:15;;;;;;;5.03;2.60;;;1.80;99.90;;;0.66;78.75;101435.84;5055024;28;20229;-73
2023/03/16 07:57:47;;;;;;;7.53;2.60;;;1.80;99.90;;;0.72;78.66;101428.44;5054797;28;20662;-73
2023/03/16 08:00:22;;;;;;;8.00;2.60;;;1.90;99.90;;;0.80;79.40;101433.31;5054727;28;20194;-74
2023/03/16 08:02:56;;;;;;;3.83;2.10;;;2.00;99.90;;;0.86;78.90;101427.72;5054547;28;20697;-73
2023/03/16 08:05:28;;;;;;;6.20;2.57;;;2.00;99.90;;;0.95;78.55;101437.78;5054578;28;20702;-73
2023/03/16 08:08:01;;;;;;;5.57;2.50;;;2.10;99.90;;;0.99;78.26;101437.53;5054915;28;20190;-73
2023/03/16 08:10:33;;;;;;;4.70;2.20;;;2.20;99.90;;;1.12;77.48;101442.16;5054748;28;20194;-73
2023/03/16 08:13:04;;;;;;;5.27;2.57;;;2.30;99.90;;;1.17;78.00;101438.31;5054590;28;20193;-66
2023/03/16 08:15:36;;;;;;;4.17;2.57;;;2.30;99.90;;;1.25;78.32;101433.50;5054570;28;20324;-76
2023/03/16 08:18:09;;;;;;;5.10;2.30;;;2.40;99.90;;;1.32;77.29;101432.22;5054388;28;20197;-76
2023/03/16 08:20:43;;;;;;;5.80;2.67;;;2.50;99.90;;;1.46;76.56;101428.81;5054296;28;20638;-76
2023/03/16 08:23:16;;;;;;;5.07;2.47;;;2.60;99.30;;;1.54;76.38;101431.88;5054508;28;20215;-76
2023/03/16 08:25:51;;;;;;;5.83;2.37;;;2.70;99.20;;;1.67;75.90;101434.69;5054374;28;20226;-76
2023/03/16 08:28:24;;;;;;;4.87;2.50;;;2.80;99.10;;;1.75;76.20;101433.28;5054087;28;20548;-76
2023/03/16 08:30:57;;;;;;;4.57;2.20;;;2.90;98.90;;;1.80;75.64;101439.16;5054423;28;20244;-76
2023/03/16 08:33:29;;;;;;;5.17;2.17;;;3.00;98.90;;;1.93;75.01;101439.31;5054380;28;20222;-76
2023/03/16 08:36:01;;;;;;;7.07;2.30;;;3.00;98.60;;;2.02;75.14;101438.81;5053973;28;20190;-76
2023/03/16 08:38:34;;;;;;;6.30;2.40;;;3.20;98.70;;;2.04;75.48;101439.53;5053889;28;20194;-76
2023/03/16 08:41:06;;;;;;;8.77;2.50;;;3.20;98.60;;;2.08;75.07;101433.16;5053950;28;20565;-76
2023/03/16 08:43:39;;;;;;;3.83;2.03;;;3.20;98.50;;;2.12;75.07;101442.59;5054017;28;20214;-76
2023/03/16 08:46:12;;;;;;;5.50;2.30;;;3.30;98.60;;;2.19;73.81;101445.75;5054132;28;20264;-76
2023/03/16 08:48:45;;;;;;;4.40;1.83;;;3.30;98.00;;;2.22;72.11;101441.13;5054121;28;20244;-76
2023/03/16 08:51:17;;;;;;;4.17;1.90;;;3.30;97.00;;;2.29;72.11;101445.09;5054118;28;20193;-76
2023/03/16 08:53:51;;;;;;;5.13;2.07;;;3.40;96.70;;;2.33;72.11;101449.25;5053773;28;20645;-76
2023/03/16 08:56:23;;;;;;;5.30;2.27;;;3.50;96.90;;;2.41;71.91;101436.44;5054072;28;20186;-76
2023/03/16 08:58:56;;;;;;;5.67;2.00;;;3.60;96.70;;;2.50;71.40;101441.16;5053690;28;20194;-74
2023/03/16 09:01:30;;;;;;;4.70;2.10;;;3.60;96.70;;;2.71;69.95;101432.88;5052550;28;20194;-76
2023/03/16 09:04:04;;;;;;;5.50;2.07;;;3.80;95.90;;;2.81;69.70;101437.50;5051759;28;20229;-75
2023/03/16 09:06:38;;;;;;;6.27;1.80;;;3.90;95.60;;;2.92;70.09;101440.34;5051683;28;20194;-75
2023/03/16 09:09:11;;;;;;;6.17;2.07;;;4.00;95.60;;;3.07;67.95;101441.22;5052758;28;20194;-74
2023/03/16 09:11:45;;;;;;;6.80;2.10;;;4.10;94.90;;;3.17;68.08;101436.19;5053022;28;20190;-75
2023/03/16 09:14:20;;;;;;;3.87;1.80;;;4.20;94.60;;;3.23;67.29;101436.66;5051638;28;20225;-75
2023/03/16 09:16:52;;;;;;;4.13;2.07;;;4.30;94.30;;;3.28;68.60;101426.66;5052432;28;20214;-74
2023/03/16 09:19:25;;;;;;;4.90;2.03;;;4.40;95.00;;;3.37;67.76;101425.19;5052490;28;20600;-75
2023/03/16 09:22:02;;;;;;;9.30;2.20;;;4.50;94.60;;;3.46;66.25;101422.81;5051697;28;20189;-75
2023/03/16 09:24:36;;;;;;;9.80;2.20;;;4.60;93.60;;;3.54;65.69;101420.53;5051226;28;20238;-74
2023/03/16 09:27:10;;;;;;;6.43;1.90;;;4.60;93.20;;;3.69;64.95;101412.53;5052408;28;20194;-75
2023/03/16 09:29:45;;;;;;;4.27;2.07;;;4.70;92.80;;;3.74;64.12;101419.22;5051657;28;20236;-75
2023/03/16 09:32:17;;;;;;;4.83;2.00;;;4.80;92.30;;;3.93;63.03;101413.59;5051824;28;20200;-75
2023/03/16 09:34:51;;;;;;;3.80;2.13;;;5.00;91.20;;;4.04;63.36;101409.25;5052043;28;20593;-76
2023/03/16 09:37:26;;;;;;;3.77;2.07;;;5.10;91.80;;;4.20;59.86;101411.75;5051308;28;20589;-76
2023/03/16 09:40:01;;;;;;;5.77;1.90;;;5.30;88.20;;;4.24;61.33;101415.88;5051018;28;20186;-75
2023/03/16 09:43:02;;;;;;;3.20;1.60;;;5.30;90.40;;;4.34;59.72;101410.81;5050967;28;20627;-75
2023/03/16 09:45:48;;;;;;;4.73;2.00;;;5.40;90.00;;;4.28;62.05;101405.94;5051112;28;20233;-72
2023/03/16 09:48:23;;;;;;;4.63;1.90;;;5.30;90.60;;;4.43;59.91;101395.13;5052096;28;20259;-72
2023/03/16 09:50:59;;;;;;;5.60;2.10;;;5.50;88.20;;;4.59;59.64;101393.09;5051890;28;20190;-72
2023/03/16 09:53:36;;;;;;;3.97;2.10;;;5.60;88.30;;;4.63;60.28;101398.19;5051734;28;20585;-72
2023/03/16 09:56:29;;;;;;;6.67;2.20;;;5.70;89.10;;;4.73;60.09;101393.94;5051361;28;20557;-72
2023/03/16 09:59:53;;;;;;;9.57;2.33;;;5.80;88.10;;;4.90;57.79;101390.94;5051667;28;20244;-73
2023/03/16 10:06:21;;;;;;;5.43;2.00;;;6.00;86.10;;;5.07;56.79;101391.44;5031303;28;20214;-72
2023/03/16 10:09:06;;;;;;;6.00;2.13;;;6.10;83.10;;;5.16;57.02;101395.28;5052763;28;20637;-72
2023/03/16 10:11:47;;;;;;;2.73;1.90;;;6.20;82.90;;;5.21;57.00;101398.44;5053024;28;20197;-72
2023/03/16 10:14:29;;;;;;;6.63;2.30;;;6.20;83.40;;;5.33;58.50;101400.22;5052730;28;20222;-73
2023/03/16 10:17:10;;;;;;;5.33;2.33;;;6.40;84.70;;;5.39;56.89;101397.09;5052169;28;20214;-73
2023/03/16 10:19:48;;;;;;;5.40;2.10;;;6.40;83.60;;;5.48;56.17;101399.09;5052817;28;20190;-73
2023/03/16 10:22:27;;;;;;;3.00;1.80;;;6.50;82.60;;;5.57;55.43;101395.78;5053051;28;20201;-73
2023/03/16 10:25:07;;;;;;;5.73;1.87;;;6.60;80.30;;;5.81;52.21;101387.81;5052833;28;20230;-75
2023/03/16 10:27:44;;;;;;;5.33;2.00;;;6.70;76.00;;;5.91;54.11;101388.84;5054137;28;20194;-76
2023/03/16 10:30:22;;;;;;;6.10;1.97;;;6.80;79.70;;;5.92;55.69;101387.03;5056423;28;20560;-75
2023/03/16 10:33:00;;;;;;;3.33;1.50;;;6.90;78.70;;;6.01;51.47;101379.22;5056785;28;20187;-75
2023/03/16 10:35:41;;;;;;;3.83;1.60;;;7.00;74.20;;;6.13;51.52;101377.44;5056728;28;20427;-75
2023/03/16 10:38:27;;;;;;;2.60;1.57;;;7.10;75.40;;;6.17;52.75;101376.22;5056492;28;20194;-75
2023/03/16 10:40:59;;;;;;;6.07;1.83;;;7.10;75.10;;;6.29;53.63;101374.47;5056338;28;20198;-75
2023/03/16 10:43:35;;;;;;;3.47;1.80;;;7.30;76.80;;;6.30;51.99;101374.31;5056274;28;20190;-74
2023/03/16 10:46:10;;;;;;;2.50;1.57;;;7.30;74.90;;;6.35;51.52;101371.31;5055841;28;20613;-74
2023/03/16 10:48:52;;;;;;;3.17;1.67;;;7.30;72.90;;;6.36;50.43;101365.91;5056241;28;20194;-74
2023/03/16 10:51:29;;;;;;;5.87;2.20;;;7.30;71.40;;;6.44;50.64;101362.63;5056268;28;20194;-74
2023/03/16 10:54:14;;;;;;;4.27;1.70;;;7.40;71.70;;;6.54;50.11;101367.13;5056302;28;20714;-74